Latest Weather Observations for Cessnock Airport

IDN60801

Issued at 11:05 am EDT Friday 28 November 2014 (issued every 30 minutes, with the page automatically refreshed every 10 minutes)

About weather observations | Map of weather stations | Latest weather observations for NSW | Other Formats
Station Details ID: 061260 Name: CESSNOCK AIRPORT AWS Lat: -32.79 Lon: 151.34 Height: 61.0 m
Data from the previous 72 hours. | See also: Recent months at Cessnock Airport
Date/Time
EDT
Temp
°C
App
Temp
°C
Dew
Point
Rel
Hum
%
Delta-T
°C
Wind Press
QNH
hPa
Press
MSL
hPa
Rain
since 9 am
mm
Dir
 
Spd
km/h
Gust
km/h
Spd
kts
Gust
kts
28/11:00am 20.5 18.4 11.2 55 5.1 SE 13 19 7 10 1023.2 1023.0 0.0
28/10:30am 20.0 17.8 12.0 60 4.4 SE 15 20 8 11 1023.2 1023.0 0.0
28/10:00am 20.0 17.4 12.0 60 4.4 SE 17 22 9 12 1023.1 1022.9 0.0
28/09:30am 20.1 18.0 12.3 61 4.4 SSE 15 20 8 11 1023.2 1023.0 0.0
28/09:00am 19.8 18.2 12.8 64 3.9 SSE 13 19 7 10 1023.0 1022.8 0.4
28/08:30am 19.3 18.1 12.8 66 3.7 S 11 15 6 8 1023.0 1022.8 0.4
28/08:00am 18.6 17.7 12.6 68 3.3 SSE 9 15 5 8 1022.6 1022.4 0.4
28/07:30am 18.3 17.4 12.7 70 3.1 S 9 15 5 8 1022.2 1022.1 0.4
28/07:00am 17.8 17.4 13.1 74 2.6 SSW 7 11 4 6 1021.8 1021.7 0.4
28/06:30am 17.3 17.7 13.8 80 2.0 WSW 4 7 2 4 1021.7 1021.6 0.4
28/06:00am 17.0 18.1 13.5 80 2.0 CALM 0 0 0 0 1021.5 1021.4 0.4
28/05:30am 17.0 18.0 13.3 79 2.1 CALM 0 0 0 0 1021.3 1021.2 0.4
28/05:00am 17.1 17.6 12.8 76 2.4 S 2 7 1 4 1021.1 1021.0 0.4
28/04:30am 17.2 17.0 13.1 77 2.3 SE 6 6 3 3 1021.0 1020.9 0.4
28/04:00am 17.7 17.6 13.4 76 2.4 SE 6 6 3 3 1021.0 1020.9 0.4
28/03:30am 17.5 16.4 13.2 76 2.4 S 11 13 6 7 1021.0 1020.9 0.4
28/03:00am 17.6 16.7 13.7 78 2.2 S 11 13 6 7 1021.3 1021.2 0.4
28/02:30am 17.5 17.3 13.6 78 2.2 S 7 7 4 4 1021.5 1021.4 0.4
28/02:00am 17.7 17.6 13.4 76 2.4 S 6 7 3 4 1021.6 1021.5 0.4
28/01:30am 17.9 17.6 13.4 75 2.5 SSE 7 11 4 6 1022.0 1021.9 0.4
28/01:00am 17.7 17.4 13.4 76 2.4 S 7 11 4 6 1022.3 1022.2 0.4
28/12:30am 17.7 17.1 13.6 77 2.3 S 9 11 5 6 1022.6 1022.4 0.4
28/12:00am 17.6 17.4 13.7 78 2.2 S 7 9 4 5 1022.8 1022.6 0.4
 
Date/Time
EDT
Temp
°C
App
Temp
°C
Dew
Point
Rel
Hum
%
Delta-T
°C
Wind Press
QNH
hPa
Press
MSL
hPa
Rain
since 9 am
mm
Dir
 
Spd
km/h
Gust
km/h
Spd
kts
Gust
kts
27/11:30pm 17.7 17.1 13.4 76 2.4 S 9 11 5 6 1023.0 1022.8 0.4
27/11:00pm 17.9 17.3 13.6 76 2.4 S 9 13 5 7 1023.1 1022.9 0.4
27/10:30pm 17.8 16.8 13.5 76 2.4 S 11 15 6 8 1023.2 1023.0 0.4
27/10:00pm 18.1 17.2 13.6 75 2.6 S 11 13 6 7 1023.1 1022.9 0.4
27/09:30pm 18.1 17.1 13.4 74 2.7 SSE 11 15 6 8 1023.2 1023.0 0.4
27/09:00pm 18.3 17.0 13.6 74 2.7 SSE 13 19 7 10 1022.9 1022.7 0.4
27/08:30pm 18.3 16.1 13.4 73 2.8 SE 17 22 9 12 1022.8 1022.6 0.4
27/08:00pm 18.5 16.7 13.4 72 2.9 SSE 15 19 8 10 1022.4 1022.3 0.4
27/07:30pm 18.7 16.9 13.3 71 3.1 SSE 15 20 8 11 1022.2 1022.1 0.4
27/07:00pm 19.2 16.1 13.4 69 3.3 SE 22 30 12 16 1021.8 1021.7 0.4
27/06:30pm 19.6 17.6 13.8 69 3.3 SE 17 26 9 14 1021.4 1021.3 0.4
27/06:00pm 19.4 16.0 13.6 69 3.3 SSE 24 30 13 16 1020.9 1020.8 0.4
27/05:30pm 20.0 17.2 14.4 70 3.3 SSE 22 35 12 19 1020.8 1020.7 0.4
27/05:00pm 19.5 15.0 13.9 70 3.2 SSE 30 39 16 21 1020.8 1020.7 0.4
27/04:30pm 21.3 18.8 14.2 64 4.1 SSE 20 32 11 17 1020.5 1020.4 0.4
27/04:00pm 20.9 18.5 14.3 66 3.8 SE 20 30 11 16 1020.6 1020.5 0.4
27/03:30pm 20.6 18.2 14.3 67 3.7 ESE 20 32 11 17 1020.6 1020.5 0.4
27/03:00pm 20.2 18.3 15.2 73 2.9 ESE 19 26 10 14 1020.6 1020.5 0.4
27/02:30pm 21.0 18.4 13.9 64 4.1 SE 20 30 11 16 1020.6 1020.5 0.0
27/02:00pm 22.0 18.6 13.6 59 4.9 ESE 24 35 13 19 1020.5 1020.4 0.0
27/01:30pm 21.1 17.8 14.0 64 4.1 SE 24 30 13 16 1020.5 1020.4 0.0
27/01:00pm 21.9 18.8 14.5 63 4.3 SE 24 35 13 19 1020.5 1020.4 0.0
27/12:30pm 21.4 18.6 14.3 64 4.2 SE 22 30 12 16 1020.5 1020.4 0.0
27/12:00pm 21.2 19.1 14.8 67 3.8 SSE 19 28 10 15 1020.6 1020.5 0.0
27/11:30am 21.1 19.7 15.6 71 3.3 SSE 17 28 9 15 1020.6 1020.5 0.0
27/11:00am 21.3 18.5 14.2 64 4.1 SE 22 32 12 17 1020.5 1020.4 0.0
27/10:30am 21.3 19.0 14.7 66 3.9 SSE 20 28 11 15 1020.5 1020.4 0.0
27/10:00am 21.4 19.0 15.3 68 3.6 SSE 22 32 12 17 1020.4 1020.3 0.0
27/09:30am 20.4 18.4 15.4 73 3.0 SE 20 30 11 16 1020.3 1020.2 0.0
27/09:00am 20.2 17.8 15.4 74 2.8 SSE 22 33 12 18 1020.2 1020.1 0.0
27/08:30am 20.0 18.3 15.8 77 2.5 SE 19 28 10 15 1019.9 1019.8 0.0
27/08:00am 20.9 19.4 15.2 70 3.4 SSE 17 24 9 13 1019.3 1019.2 0.0
27/07:30am 21.3 20.7 15.6 70 3.4 SE 13 19 7 10 1019.0 1018.9 0.0
27/07:00am 20.7 18.9 15.5 72 3.1 SSE 19 28 10 15 1018.4 1018.3 0.0
27/06:30am 20.6 20.6 16.2 76 2.6 SSE 11 19 6 10 1018.1 1017.9 0.0
27/06:00am 20.5 20.1 16.3 77 2.5 SSE 13 17 7 9 1017.7 1017.5 0.0
27/05:30am 20.5 19.8 16.3 77 2.5 SSE 15 22 8 12 1017.2 1017.0 0.0
27/05:00am 20.6 19.1 16.4 77 2.5 SSE 19 28 10 15 1016.8 1016.6 0.0
27/04:30am 20.7 20.1 16.7 78 2.4 SSE 15 24 8 13 1016.7 1016.5 0.0
27/04:00am 20.7 20.2 16.9 79 2.3 SSE 15 20 8 11 1016.4 1016.2 0.0
27/03:30am 20.6 19.8 17.0 80 2.2 SSE 17 22 9 12 1016.2 1016.0 0.0
27/03:00am 20.4 20.6 16.8 80 2.2 S 11 15 6 8 1016.1 1015.9 0.0
27/02:30am 20.4 20.7 17.0 81 2.1 S 11 17 6 9 1016.2 1016.0 0.0
27/02:00am 20.3 20.5 16.7 80 2.2 S 11 15 6 8 1016.3 1016.1 0.0
27/01:30am 20.2 20.8 16.8 81 2.1 S 9 13 5 7 1016.5 1016.3 0.0
27/01:00am 19.8 20.3 16.6 82 1.9 S 9 13 5 7 1016.8 1016.6 0.0
27/12:30am 19.8 19.5 16.4 81 2.0 S 13 17 7 9 1017.0 1016.8 0.0
27/12:00am 19.9 19.9 16.3 80 2.2 S 11 15 6 8 1017.1 1016.9 0.0
 
Date/Time
EDT
Temp
°C
App
Temp
°C
Dew
Point
Rel
Hum
%
Delta-T
°C
Wind Press
QNH
hPa
Press
MSL
hPa
Rain
since 9 am
mm
Dir
 
Spd
km/h
Gust
km/h
Spd
kts
Gust
kts
26/11:30pm 20.1 19.7 16.3 79 2.3 S 13 17 7 9 1017.1 1016.9 0.0
26/11:00pm 20.1 20.0 16.1 78 2.4 S 11 15 6 8 1016.8 1016.6 0.0
26/10:30pm 20.1 20.0 15.9 77 2.5 S 11 15 6 8 1016.6 1016.4 0.0
26/10:00pm 20.5 20.0 15.9 75 2.8 S 13 17 7 9 1016.5 1016.3 0.0
26/09:30pm 21.4 21.3 16.1 72 3.2 SSE 11 15 6 8 1016.1 1015.9 0.0
26/09:00pm 21.5 20.9 15.6 69 3.5 SSE 13 15 7 8 1015.9 1015.7 0.0
26/08:30pm 22.1 21.5 15.7 67 3.8 SE 13 22 7 12 1015.4 1015.2 0.0
26/08:00pm 23.0 22.5 15.8 64 4.3 ESE 13 20 7 11 1015.2 1015.0 0.0
26/07:30pm 23.6 22.2 15.6 61 4.8 E 17 20 9 11 1014.9 1014.7 0.0
26/07:00pm 24.3 23.0 15.8 59 5.2 ESE 17 22 9 12 1014.6 1014.4 0.0
26/06:30pm 25.1 23.9 16.0 57 5.6 ESE 17 28 9 15 1014.2 1014.0 0.0
26/06:00pm 25.5 23.6 15.8 55 5.9 E 20 26 11 14 1013.9 1013.7 0.0
26/05:30pm 25.9 24.7 16.2 55 6.0 E 17 22 9 12 1013.7 1013.5 0.0
26/05:00pm 25.6 23.8 15.6 54 6.1 E 19 24 10 13 1013.9 1013.7 0.0
26/04:30pm 26.2 23.7 16.2 54 6.2 E 24 30 13 16 1014.1 1013.9 0.0
26/04:00pm 26.3 24.6 15.7 52 6.5 E 19 22 10 12 1014.1 1013.9 0.0
26/03:30pm 26.2 25.5 15.3 51 6.6 ESE 13 24 7 13 1014.6 1014.4 0.0
26/03:00pm 26.7 27.1 17.2 56 5.9 ESE 11 17 6 9 1015.0 1014.8 0.0
26/02:30pm 24.2 22.2 14.9 56 5.6 SSE 19 30 10 16 1015.6 1015.4 0.0
26/02:00pm 23.6 22.7 14.9 58 5.2 SE 13 17 7 9 1016.1 1015.9 0.0
26/01:30pm 23.3 22.1 15.1 60 4.9 SE 15 20 8 11 1016.4 1016.2 0.0
26/01:00pm 23.2 22.2 14.5 58 5.1 ESE 13 20 7 11 1016.6 1016.4 0.0
26/12:30pm 23.2 22.7 15.0 60 4.9 SE 11 15 6 8 1017.0 1016.8 0.0
26/12:00pm 23.5 22.7 15.0 59 5.1 SE 13 17 7 9 1017.4 1017.2 0.0
26/11:30am 22.9 21.8 14.2 58 5.1 SE 13 19 7 10 1017.8 1017.6 0.0
26/11:00am 22.6 21.4 15.0 62 4.5 E 15 20 8 11 1018.1 1017.9 0.0
26/10:30am 21.8 20.7 14.4 63 4.3 E 13 17 7 9 1018.3 1018.2 0.0
26/10:00am 21.5 19.9 13.9 62 4.4 ESE 15 24 8 13 1018.3 1018.2 0.0
26/09:30am 21.5 19.4 14.6 65 4.1 E 19 24 10 13 1018.3 1018.2 0.0
26/09:00am 20.6 19.5 14.3 67 3.7 SE 13 17 7 9 1018.4 1018.3 0.0
26/08:30am 20.1 19.5 14.5 70 3.3 SSE 11 15 6 8 1018.6 1018.5 0.0
26/08:00am 19.5 18.8 14.3 72 3.0 SE 11 15 6 8 1018.6 1018.5 0.0
26/07:30am 19.1 18.7 14.1 73 2.9 SSE 9 13 5 7 1018.6 1018.5 0.0
26/07:00am 18.8 18.4 14.1 74 2.7 SSE 9 11 5 6 1018.5 1018.4 0.0
26/06:30am 18.4 18.5 13.9 75 2.6 S 6 9 3 5 1018.4 1018.3 0.0
26/06:00am 18.3 18.2 14.0 76 2.5 SSE 7 9 4 5 1018.4 1018.3 0.0
26/05:30am 18.2 18.1 13.9 76 2.5 SSE 7 11 4 6 1018.3 1018.2 0.0
26/05:00am 18.0 17.9 13.9 77 2.3 SSE 7 11 4 6 1018.1 1017.9 0.0
26/04:30am 18.0 17.2 13.9 77 2.3 SSE 11 13 6 7 1018.0 1017.8 0.0
26/04:00am 18.2 17.4 13.9 76 2.5 SSE 11 15 6 8 1018.0 1017.8 0.0
26/03:30am 18.3 17.9 14.2 77 2.4 SSE 9 13 5 7 1018.2 1018.0 0.0
26/03:00am 17.8 16.9 13.7 77 2.3 S 11 15 6 8 1018.2 1018.0 0.0
26/02:30am 18.2 17.3 13.7 75 2.6 S 11 15 6 8 1018.4 1018.3 0.0
26/02:00am 18.4 17.6 13.9 75 2.6 SSE 11 15 6 8 1018.7 1018.6 0.0
26/01:30am 18.5 17.6 13.6 73 2.8 SSE 11 15 6 8 1018.9 1018.8 0.0
26/01:00am 18.7 17.8 13.6 72 2.9 SSE 11 15 6 8 1019.1 1019.0 0.0
26/12:30am 18.9 17.5 13.5 71 3.1 SSE 13 17 7 9 1019.5 1019.4 0.0
26/12:00am 19.0 18.2 14.1 73 2.8 SSE 11 19 6 10 1019.5 1019.4 0.0
 
Date/Time
EDT
Temp
°C
App
Temp
°C
Dew
Point
Rel
Hum
%
Delta-T
°C
Wind Press
QNH
hPa
Press
MSL
hPa
Rain
since 9 am
mm
Dir
 
Spd
km/h
Gust
km/h
Spd
kts
Gust
kts
25/11:30pm 19.1 17.9 14.1 73 2.9 SSE 13 19 7 10 1019.5 1019.4 0.0
25/11:00pm 19.0 17.9 14.3 74 2.7 SSE 13 17 7 9 1019.5 1019.4 0.0
25/10:30pm 19.1 18.3 14.1 73 2.9 SSE 11 15 6 8 1019.5 1019.4 0.0
25/10:00pm 19.2 18.6 14.5 74 2.7 SE 11 17 6 9 1019.4 1019.3 0.0
25/09:30pm 19.3 19.0 14.3 73 2.9 SE 9 19 5 10 1019.1 1019.0 0.0
25/09:00pm 19.2 18.5 14.2 73 2.9 ESE 11 15 6 8 1018.7 1018.6 0.0
25/08:30pm 19.5 18.4 14.3 72 3.0 E 13 20 7 11 1018.5 1018.4 0.0
25/08:00pm 20.0 18.2 14.4 70 3.3 E 17 24 9 13 1018.3 1018.2 0.0
25/07:30pm 20.3 18.9 14.4 69 3.4 E 15 20 8 11 1017.7 1017.5 0.0
25/07:00pm 20.5 19.1 14.4 68 3.6 E 15 22 8 12 1017.4 1017.2 0.0
25/06:30pm 20.6 18.6 14.0 66 3.8 ESE 17 24 9 13 1016.8 1016.6 0.0
25/06:00pm 20.9 19.5 14.5 67 3.7 ESE 15 20 8 11 1016.3 1016.1 0.0
25/05:30pm 21.1 18.9 14.3 65 4.0 ESE 19 26 10 14 1015.9 1015.7 0.0
25/05:00pm 22.0 19.8 14.9 64 4.2 E 20 28 11 15 1015.6 1015.4 0.0
25/04:30pm 22.9 20.9 15.0 61 4.7 ESE 19 28 10 15 1015.5 1015.3 0.0
25/04:00pm 23.2 20.6 15.0 60 4.9 ESE 22 30 12 16 1015.4 1015.2 0.0
25/03:30pm 23.0 20.1 15.1 61 4.7 ESE 24 30 13 16 1015.0 1014.8 0.0
25/03:00pm 24.2 22.1 16.2 61 4.9 SE 22 32 12 17 1014.9 1014.7 0.0
25/02:30pm 24.6 22.1 16.1 59 5.2 SE 24 33 13 18 1014.6 1014.4 0.0
25/02:00pm 24.8 21.9 15.1 54 5.8 SE 24 32 13 17 1014.5 1014.3 0.0
25/01:30pm 27.7 26.0 12.5 39 8.9 S 13 19 7 10 1014.2 1014.0 0.0
25/01:00pm 27.5 25.4 12.3 39 8.8 S 15 22 8 12 1014.4 1014.2 0.0
25/12:30pm 27.4 24.9 12.2 39 8.8 SSW 17 26 9 14 1014.6 1014.4 0.0
25/12:00pm 27.8 25.3 12.2 38 9.1 SW 17 30 9 16 1014.6 1014.4 0.0
25/11:30am 27.7 26.0 13.6 42 8.4 W 15 26 8 14 1014.4 1014.2 0.0

Other Formats:

Comma delimited format used in spreadsheet applications
http://www.bom.gov.au/fwo/IDN60801/IDN60801.95771.axf

JavaScript Object Notation format (JSON) in row-major order
http://www.bom.gov.au/fwo/IDN60801/IDN60801.95771.json